Time;durP1;ratioP1;P1;durP2;ratioP2;P2;SDS_P1;SDS_P2;PMS_P1;PMS_P2;Temp;Humidity;BMP_temperature;BMP_pressure;BME280_temperature;BME280_humidity;BME280_pressure;Samples;Min_cycle;Max_cycle;Signal;HPM_P1;HPM_P2
2022/09/06 00:00:05;;;;;;;4.20;2.47;;;19.90;99.90;;;;;;5028713;28;20474;-74
2022/09/06 00:02:32;;;;;;;3.90;2.50;;;19.80;99.90;;;;;;5027113;28;20877;-74
2022/09/06 00:04:57;;;;;;;4.00;3.10;;;19.70;99.90;;;;;;5027218;28;20422;-74
2022/09/06 00:07:23;;;;;;;3.30;2.60;;;19.70;99.90;;;;;;5028752;28;20427;-74
2022/09/06 00:09:49;;;;;;;4.07;3.10;;;19.60;99.90;;;;;;5028792;28;20299;-74
2022/09/06 00:12:14;;;;;;;3.27;2.80;;;19.60;99.90;;;;;;5027009;28;20315;-74
2022/09/06 00:14:40;;;;;;;4.40;2.90;;;19.60;99.90;;;;;;5029048;28;20521;-74
2022/09/06 00:17:06;;;;;;;4.00;2.90;;;19.60;99.90;;;;;;5028679;28;20620;-74
2022/09/06 00:19:32;;;;;;;6.47;3.60;;;19.60;99.90;;;;;;5028545;28;20523;-73
2022/09/06 00:21:57;;;;;;;7.73;3.40;;;19.50;99.90;;;;;;5026919;28;20298;-74
2022/09/06 00:24:23;;;;;;;4.80;3.37;;;19.40;99.90;;;;;;5028705;28;20180;-74
2022/09/06 00:26:48;;;;;;;2.90;2.60;;;19.40;99.90;;;;;;5028744;28;20611;-74
2022/09/06 00:29:14;;;;;;;7.63;3.20;;;19.40;99.90;;;;;;5028738;28;20718;-74
2022/09/06 00:31:39;;;;;;;2.90;2.70;;;19.40;99.90;;;;;;5028590;28;20235;-74
2022/09/06 00:34:05;;;;;;;3.43;3.07;;;19.40;99.90;;;;;;5027460;28;20184;-74
2022/09/06 00:36:31;;;;;;;3.63;2.97;;;19.40;99.90;;;;;;5028978;28;20241;-74
2022/09/06 00:38:57;;;;;;;3.47;3.00;;;19.40;99.90;;;;;;5029817;28;20958;-74
2022/09/06 00:41:23;;;;;;;4.47;2.73;;;19.30;99.90;;;;;;5028527;28;20215;-74
2022/09/06 00:43:48;;;;;;;3.33;3.03;;;19.20;99.90;;;;;;5028415;28;20425;-74
2022/09/06 00:46:22;;;;;;;4.00;2.90;;;19.20;99.90;;;;;;5028558;28;20184;-74
2022/09/06 00:48:51;;;;;;;4.47;2.67;;;19.10;99.90;;;;;;5028777;28;20466;-74
2022/09/06 00:51:19;;;;;;;5.93;3.20;;;19.10;99.90;;;;;;5028702;28;20451;-74
2022/09/06 00:53:45;;;;;;;4.13;3.03;;;19.00;99.90;;;;;;5028745;28;20506;-74
2022/09/06 00:56:11;;;;;;;3.80;2.93;;;19.10;99.90;;;;;;5029853;28;20577;-74
2022/09/06 00:58:37;;;;;;;4.50;2.80;;;19.10;99.90;;;;;;5031631;28;20212;-73
2022/09/06 01:01:04;;;;;;;4.67;2.70;;;19.20;99.90;;;;;;5033049;28;20493;-73
2022/09/06 01:03:29;;;;;;;4.20;2.63;;;19.20;99.90;;;;;;5031376;28;20209;-73
2022/09/06 01:06:27;;;;;;;3.20;2.47;;;19.40;99.90;;;;;;5032809;28;20418;-74
2022/09/06 01:09:03;;;;;;;4.43;2.50;;;19.50;99.90;;;;;;5023387;28;20207;-74
2022/09/06 01:11:59;;;;;;;4.10;2.40;;;19.70;99.90;;;;;;5033027;28;21017;-73
2022/09/06 01:14:33;;;;;;;4.50;3.17;;;19.90;99.90;;;;;;5031596;28;20672;-74
2022/09/06 01:17:30;;;;;;;2.90;2.70;;;20.10;99.90;;;;;;5032788;28;20421;-74
2022/09/06 01:20:18;;;;;;;6.07;2.57;;;20.40;99.90;;;;;;5032958;28;20492;-74
2022/09/06 01:22:56;;;;;;;3.17;2.50;;;20.60;99.90;;;;;;5033092;28;20411;-74
2022/09/06 01:25:47;;;;;;;3.73;2.73;;;20.80;99.90;;;;;;5032974;28;20426;-73
2022/09/06 01:28:21;;;;;;;6.00;2.33;;;20.90;99.90;;;;;;5032911;28;20500;-74
2022/09/06 01:30:56;;;;;;;3.17;2.40;;;20.90;99.90;;;;;;5031296;28;20457;-73
2022/09/06 01:33:31;;;;;;;4.13;2.83;;;20.50;99.90;;;;;;5032806;28;20426;-74
2022/09/06 01:36:01;;;;;;;4.33;3.10;;;20.10;99.90;;;;;;5032788;28;20457;-73
2022/09/06 01:38:27;;;;;;;6.03;3.43;;;19.90;99.90;;;;;;5030856;28;20479;-74
2022/09/06 01:40:53;;;;;;;3.83;2.80;;;19.90;99.90;;;;;;5032264;28;20434;-74
2022/09/06 01:43:35;;;;;;;3.60;3.23;;;19.80;99.90;;;;;;5032344;28;20834;-74
2022/09/06 01:46:23;;;;;;;4.10;3.20;;;19.60;99.90;;;;;;5031236;28;20185;-73
2022/09/06 01:49:10;;;;;;;4.63;3.90;;;19.40;99.90;;;;;;5032394;28;20426;-74
2022/09/06 01:51:54;;;;;;;3.63;3.33;;;19.20;99.90;;;;;;5032111;28;20492;-74
2022/09/06 01:54:56;;;;;;;7.53;4.00;;;18.90;99.90;;;;;;5031541;28;20469;-74
2022/09/06 01:57:28;;;;;;;5.00;3.67;;;18.60;99.90;;;;;;5031678;28;20534;-74
2022/09/06 02:00:13;;;;;;;10.10;4.17;;;18.40;99.90;;;;;;5031545;28;20477;-74
2022/09/06 02:03:20;;;;;;;6.07;3.50;;;18.30;99.90;;;;;;5031532;28;20414;-74
2022/09/06 02:06:02;;;;;;;9.03;3.43;;;18.20;99.90;;;;;;5031500;28;20411;-73
2022/09/06 02:08:34;;;;;;;4.90;4.30;;;18.20;99.90;;;;;;5031515;28;20414;-74
2022/09/06 02:11:05;;;;;;;4.30;3.90;;;18.10;99.90;;;;;;5031597;28;20442;-73
2022/09/06 02:13:38;;;;;;;4.77;4.00;;;18.10;99.90;;;;;;5032849;28;20442;-74
2022/09/06 02:16:06;;;;;;;7.17;4.10;;;18.00;99.90;;;;;;5032456;28;20421;-74
2022/09/06 02:18:43;;;;;;;5.97;4.67;;;18.00;99.90;;;;;;5032417;28;20974;-74
2022/09/06 02:21:12;;;;;;;6.40;4.00;;;18.00;99.90;;;;;;5037906;28;20481;-73
2022/09/06 02:23:39;;;;;;;7.10;4.43;;;17.90;99.90;;;;;;5056320;28;20450;-72
2022/09/06 02:26:18;;;;;;;7.53;4.33;;;17.90;99.90;;;;;;5057662;28;20419;-71
2022/09/06 02:28:44;;;;;;;8.90;4.77;;;17.80;99.90;;;;;;5057715;28;20456;-71
2022/09/06 02:31:22;;;;;;;19.00;4.77;;;17.90;99.90;;;;;;5041167;28;20437;-73
2022/09/06 02:33:49;;;;;;;12.73;4.17;;;17.90;99.90;;;;;;5032968;28;20734;-74
2022/09/06 02:36:15;;;;;;;5.20;4.30;;;17.80;99.90;;;;;;5033126;28;20534;-74
2022/09/06 02:38:43;;;;;;;4.23;3.83;;;17.60;99.90;;;;;;5032653;28;21056;-74
2022/09/06 02:41:09;;;;;;;4.50;4.10;;;17.60;99.90;;;;;;5032558;28;20463;-74
2022/09/06 02:43:34;;;;;;;7.03;4.53;;;17.50;99.90;;;;;;5031907;28;20426;-74
2022/09/06 02:46:00;;;;;;;3.90;3.60;;;17.50;99.90;;;;;;5031552;28;20485;-73
2022/09/06 02:48:26;;;;;;;4.30;3.80;;;17.50;99.90;;;;;;5031553;28;20205;-73
2022/09/06 02:50:52;;;;;;;3.77;3.47;;;17.50;99.90;;;;;;5031418;28;20533;-73
2022/09/06 02:53:17;;;;;;;5.60;4.80;;;17.60;99.90;;;;;;5031329;28;20275;-73
2022/09/06 02:55:46;;;;;;;6.03;4.00;;;17.60;99.90;;;;;;5031210;28;20199;-72
2022/09/06 02:58:11;;;;;;;6.83;4.63;;;17.60;99.90;;;;;;5031089;28;20206;-73
2022/09/06 03:00:37;;;;;;;5.77;4.10;;;17.50;99.90;;;;;;5029592;28;20458;-73
2022/09/06 03:03:03;;;;;;;7.53;4.50;;;17.40;99.90;;;;;;5031335;28;20595;-74
2022/09/06 03:05:29;;;;;;;10.40;5.00;;;17.40;99.90;;;;;;5029427;28;20503;-73
2022/09/06 03:07:55;;;;;;;5.70;4.50;;;17.40;99.90;;;;;;5031111;28;20210;-74
2022/09/06 03:10:22;;;;;;;9.20;4.47;;;17.50;99.90;;;;;;5030957;28;20272;-73
2022/09/06 03:12:48;;;;;;;6.80;5.00;;;17.50;99.90;;;;;;5029654;28;21101;-74
2022/09/06 03:15:15;;;;;;;6.33;5.00;;;17.50;99.90;;;;;;5031033;28;20507;-73
2022/09/06 03:17:42;;;;;;;6.30;4.30;;;17.30;99.90;;;;;;5030851;28;20180;-73
2022/09/06 03:20:08;;;;;;;8.53;4.63;;;17.10;99.90;;;;;;5030058;28;20467;-73
2022/09/06 03:22:36;;;;;;;7.50;4.70;;;17.00;99.90;;;;;;5030427;28;20494;-73
2022/09/06 03:25:02;;;;;;;10.53;5.47;;;16.80;99.90;;;;;;5030544;28;20502;-73
2022/09/06 03:27:28;;;;;;;5.40;4.83;;;16.80;99.90;;;;;;5030556;28;20527;-73
2022/09/06 03:29:53;;;;;;;7.57;4.87;;;16.80;99.90;;;;;;5030634;28;20418;-73
2022/09/06 03:32:19;;;;;;;9.13;4.70;;;16.90;99.90;;;;;;5030282;28;20201;-73
2022/09/06 03:34:45;;;;;;;34.87;6.97;;;17.10;99.90;;;;;;5029146;28;20278;-72
2022/09/06 03:37:10;;;;;;;21.17;6.40;;;17.20;99.90;;;;;;5030336;28;20657;-73
2022/09/06 03:39:36;;;;;;;12.03;5.93;;;17.20;99.90;;;;;;5030501;28;20224;-73
2022/09/06 03:42:02;;;;;;;11.10;7.27;;;17.20;99.90;;;;;;5030274;28;20300;-73
2022/09/06 03:44:27;;;;;;;14.80;8.27;;;17.10;99.90;;;;;;5012435;28;20188;-73
2022/09/06 03:46:53;;;;;;;9.33;6.20;;;17.00;99.90;;;;;;5012637;28;20672;-74
2022/09/06 03:49:18;;;;;;;12.43;7.33;;;16.80;99.90;;;;;;5030273;28;20190;-74
2022/09/06 03:51:44;;;;;;;8.70;5.60;;;16.70;99.90;;;;;;5030209;28;20204;-74
2022/09/06 03:54:10;;;;;;;6.13;5.47;;;16.70;99.90;;;;;;5030330;28;20194;-74
2022/09/06 03:56:35;;;;;;;10.43;5.20;;;16.90;99.90;;;;;;5012192;28;20664;-73
2022/09/06 03:59:01;;;;;;;9.30;7.40;;;17.00;99.90;;;;;;5028448;28;20220;-74
2022/09/06 04:01:27;;;;;;;15.83;7.07;;;17.00;99.90;;;;;;5029883;28;20253;-74
2022/09/06 04:03:52;;;;;;;12.87;7.00;;;17.10;99.90;;;;;;5028795;28;20289;-73
2022/09/06 04:06:18;;;;;;;11.53;7.30;;;17.10;99.90;;;;;;5028577;28;20196;-73
2022/09/06 04:08:44;;;;;;;10.87;7.60;;;17.10;99.90;;;;;;5030278;28;20537;-72
2022/09/06 04:11:10;;;;;;;10.27;7.43;;;17.10;99.90;;;;;;5029683;28;20530;-73
2022/09/06 04:13:36;;;;;;;12.80;7.33;;;17.00;99.90;;;;;;5031029;28;20205;-73
2022/09/06 04:16:03;;;;;;;11.00;7.37;;;16.80;99.90;;;;;;5030397;28;20797;-73
2022/09/06 04:18:29;;;;;;;9.17;5.37;;;16.60;99.90;;;;;;5030322;28;20230;-75
2022/09/06 04:20:55;;;;;;;6.50;5.00;;;16.50;99.90;;;;;;5030400;28;20442;-75
2022/09/06 04:23:22;;;;;;;7.93;5.00;;;16.50;99.90;;;;;;5030341;28;20469;-75
2022/09/06 04:25:53;;;;;;;6.93;4.70;;;16.40;99.90;;;;;;5030524;28;20425;-75
2022/09/06 04:28:20;;;;;;;9.03;5.30;;;16.40;99.90;;;;;;5030348;28;20946;-75
2022/09/06 04:31:00;;;;;;;10.43;4.57;;;16.30;99.90;;;;;;5028328;28;20896;-75
2022/09/06 04:33:28;;;;;;;7.10;5.00;;;16.20;99.90;;;;;;5029010;28;20425;-75
2022/09/06 04:35:58;;;;;;;9.43;5.30;;;16.10;99.90;;;;;;5028398;28;20456;-75
2022/09/06 04:38:26;;;;;;;6.50;4.70;;;16.00;99.90;;;;;;5028308;28;20570;-75
2022/09/06 04:40:54;;;;;;;11.50;5.10;;;16.10;99.90;;;;;;5026634;28;20461;-75
2022/09/06 04:43:20;;;;;;;6.67;4.90;;;16.10;99.90;;;;;;5028592;28;20416;-75
2022/09/06 04:45:46;;;;;;;5.67;4.20;;;16.00;99.90;;;;;;5010281;28;20428;-75
2022/09/06 04:48:12;;;;;;;10.30;5.00;;;16.00;99.90;;;;;;5028172;28;20460;-75
2022/09/06 04:50:37;;;;;;;10.20;5.60;;;16.00;99.90;;;;;;5027993;28;21015;-76
2022/09/06 04:53:04;;;;;;;7.80;5.80;;;16.00;99.90;;;;;;5028253;28;20657;-75
2022/09/06 04:55:30;;;;;;;11.60;4.70;;;16.00;99.90;;;;;;5027929;28;20181;-75
2022/09/06 04:57:58;;;;;;;6.17;5.57;;;16.00;99.90;;;;;;5027970;28;20418;-75
2022/09/06 05:00:25;;;;;;;6.87;5.33;;;16.00;99.90;;;;;;5027732;28;20427;-76
2022/09/06 05:02:51;;;;;;;5.40;4.90;;;16.00;99.90;;;;;;5026524;28;20433;-75
2022/09/06 05:05:16;;;;;;;5.10;4.60;;;15.90;99.90;;;;;;5026525;28;20427;-76
2022/09/06 05:07:42;;;;;;;5.63;5.00;;;15.90;99.90;;;;;;5027802;28;20189;-76
2022/09/06 05:10:08;;;;;;;5.50;5.03;;;16.20;99.90;;;;;;5027790;28;20185;-76
2022/09/06 05:12:34;;;;;;;6.40;4.73;;;16.20;99.90;;;;;;5027663;28;20226;-76
2022/09/06 05:14:59;;;;;;;6.57;4.40;;;16.10;99.90;;;;;;5027801;28;20490;-75
2022/09/06 05:17:25;;;;;;;6.33;4.70;;;16.10;99.90;;;;;;5026239;28;20805;-75
2022/09/06 05:19:50;;;;;;;11.30;5.10;;;16.10;99.90;;;;;;5027370;28;20219;-75
2022/09/06 05:22:16;;;;;;;5.30;4.20;;;16.20;99.90;;;;;;5025469;28;20256;-75
2022/09/06 05:24:42;;;;;;;5.10;4.60;;;16.10;99.90;;;;;;5025789;28;20186;-75
2022/09/06 05:27:08;;;;;;;7.27;4.97;;;16.10;99.90;;;;;;5025809;28;20308;-76
2022/09/06 05:29:34;;;;;;;8.60;4.93;;;16.20;99.90;;;;;;5026997;28;20422;-75
2022/09/06 05:31:59;;;;;;;7.17;5.10;;;16.30;99.90;;;;;;5026680;28;20695;-75
2022/09/06 05:34:25;;;;;;;6.27;4.80;;;16.50;99.90;;;;;;5025324;28;20187;-75
2022/09/06 05:36:51;;;;;;;6.20;4.70;;;16.60;99.90;;;;;;5025468;28;20193;-75
2022/09/06 05:39:20;;;;;;;6.30;5.23;;;16.70;99.90;;;;;;5027308;28;20320;-75
2022/09/06 05:41:46;;;;;;;6.97;5.07;;;16.80;99.90;;;;;;5026238;28;20194;-75
2022/09/06 05:44:12;;;;;;;5.43;4.33;;;16.90;99.90;;;;;;5030940;28;20417;-75
2022/09/06 05:46:44;;;;;;;5.10;4.60;;;17.00;99.90;;;;;;5029228;28;20422;-74
2022/09/06 05:49:11;;;;;;;8.47;4.40;;;17.10;99.90;;;;;;5030191;28;20528;-75
2022/09/06 05:51:40;;;;;;;8.00;5.03;;;17.20;99.90;;;;;;5028640;28;20481;-75
2022/09/06 05:54:09;;;;;;;5.73;5.23;;;17.20;99.90;;;;;;5030793;28;20839;-75
2022/09/06 05:56:35;;;;;;;8.50;7.13;;;17.20;99.90;;;;;;5030085;28;21246;-75
2022/09/06 05:59:00;;;;;;;8.07;5.60;;;17.30;99.90;;;;;;5031505;28;20494;-75
2022/09/06 06:01:29;;;;;;;12.90;6.20;;;17.40;99.90;;;;;;5029902;28;20695;-75
2022/09/06 06:04:03;;;;;;;7.10;5.37;;;17.60;99.90;;;;;;5029787;28;20283;-75
2022/09/06 06:06:31;;;;;;;8.73;5.80;;;17.70;99.90;;;;;;5027891;28;20424;-75
2022/09/06 06:08:57;;;;;;;8.13;5.50;;;18.00;99.90;;;;;;5029587;28;20471;-75
2022/09/06 06:11:24;;;;;;;10.10;5.90;;;18.10;99.90;;;;;;5029402;28;20444;-75
2022/09/06 06:13:50;;;;;;;6.00;5.40;;;18.20;99.90;;;;;;5029353;28;20448;-74
2022/09/06 06:16:18;;;;;;;8.20;5.27;;;18.20;99.90;;;;;;5029946;28;21027;-75
2022/09/06 06:18:44;;;;;;;5.73;5.00;;;18.10;99.90;;;;;;5027925;28;20581;-75
2022/09/06 06:21:11;;;;;;;10.73;5.57;;;18.10;99.90;;;;;;5029305;28;20532;-75
2022/09/06 06:23:38;;;;;;;3.60;3.30;;;18.10;99.90;;;;;;5011067;28;20211;-75
2022/09/06 06:26:04;;;;;;;5.43;3.80;;;18.10;99.90;;;;;;5029344;28;20446;-75
2022/09/06 06:28:31;;;;;;;7.70;4.10;;;18.10;99.90;;;;;;5029060;28;21346;-75
2022/09/06 06:30:56;;;;;;;4.70;4.30;;;18.20;99.90;;;;;;5027510;28;20528;-75
2022/09/06 06:33:22;;;;;;;6.43;3.90;;;18.20;99.90;;;;;;5027442;28;20875;-75
2022/09/06 06:36:04;;;;;;;5.10;4.53;;;18.20;99.90;;;;;;5029198;28;20242;-76
2022/09/06 06:38:32;;;;;;;5.60;4.47;;;18.20;99.90;;;;;;5029012;28;20217;-75
2022/09/06 06:40:58;;;;;;;8.40;5.40;;;18.20;99.90;;;;;;5028847;28;20854;-76
2022/09/06 06:43:24;;;;;;;5.90;4.40;;;18.20;99.90;;;;;;5027316;28;20468;-76
2022/09/06 06:45:50;;;;;;;5.13;4.63;;;18.30;99.90;;;;;;5028913;28;20416;-76
2022/09/06 06:48:16;;;;;;;5.23;4.50;;;18.30;99.90;;;;;;5027162;28;20474;-76
2022/09/06 06:50:41;;;;;;;5.67;5.17;;;18.20;99.90;;;;;;5027299;28;20205;-76
2022/09/06 06:53:07;;;;;;;15.00;4.20;;;18.20;99.90;;;;;;5028033;28;20982;-76
2022/09/06 06:55:33;;;;;;;4.87;4.37;;;18.20;99.90;;;;;;5026796;28;20187;-76
2022/09/06 06:57:59;;;;;;;4.80;4.10;;;18.30;99.90;;;;;;5028564;28;20182;-76
2022/09/06 07:00:25;;;;;;;6.07;4.07;;;18.40;99.90;;;;;;5028495;28;20224;-75
2022/09/06 07:02:51;;;;;;;6.57;4.60;;;18.40;99.90;;;;;;5027022;28;20846;-75
2022/09/06 07:05:17;;;;;;;8.03;4.07;;;18.40;99.90;;;;;;5028427;28;20696;-76
2022/09/06 07:07:43;;;;;;;7.40;4.40;;;18.40;99.90;;;;;;5026865;28;20917;-76
2022/09/06 07:10:09;;;;;;;6.33;4.10;;;18.50;99.90;;;;;;5028609;28;20215;-76
2022/09/06 07:12:35;;;;;;;7.00;4.37;;;18.70;99.90;;;;;;5028080;28;20229;-76
2022/09/06 07:15:01;;;;;;;4.67;4.17;;;18.80;99.90;;;;;;5028529;28;20428;-76
2022/09/06 07:17:28;;;;;;;4.57;4.17;;;19.00;99.90;;;;;;5028289;28;20752;-76
2022/09/06 07:19:53;;;;;;;5.80;4.70;;;19.20;99.90;;;;;;5028369;28;20905;-76
2022/09/06 07:22:19;;;;;;;6.47;4.37;;;19.50;99.90;;;;;;5027890;28;20443;-76
2022/09/06 07:24:44;;;;;;;5.63;4.60;;;19.60;99.90;;;;;;5028016;28;20176;-76
2022/09/06 07:27:10;;;;;;;7.00;3.97;;;19.70;99.90;;;;;;5010150;28;20660;-75
2022/09/06 07:29:36;;;;;;;7.00;3.80;;;19.80;99.90;;;;;;5027992;28;20190;-76
2022/09/06 07:32:01;;;;;;;9.33;4.83;;;19.90;99.90;;;;;;5027913;28;20204;-76
2022/09/06 07:34:27;;;;;;;6.80;4.80;;;20.00;99.90;;;;;;5027854;28;20659;-76
2022/09/06 07:36:55;;;;;;;5.30;4.77;;;20.10;99.90;;;;;;5027882;28;20419;-75
2022/09/06 07:39:22;;;;;;;7.30;4.23;;;20.10;99.90;;;;;;5026308;28;20214;-76
2022/09/06 07:41:47;;;;;;;6.20;4.57;;;20.20;99.90;;;;;;5027631;28;20438;-76
2022/09/06 07:44:14;;;;;;;4.87;4.00;;;20.20;99.90;;;;;;5027747;28;20766;-75
2022/09/06 07:46:40;;;;;;;5.53;4.70;;;20.30;99.90;;;;;;5029144;28;20181;-75
2022/09/06 07:49:06;;;;;;;6.53;4.60;;;20.30;99.90;;;;;;5026570;28;20895;-76
2022/09/06 07:51:32;;;;;;;8.33;4.63;;;20.40;99.90;;;;;;5026254;28;20710;-76
2022/09/06 07:53:58;;;;;;;6.10;4.93;;;20.40;99.90;;;;;;5027673;28;20423;-76
2022/09/06 07:56:24;;;;;;;8.13;4.13;;;20.40;99.90;;;;;;5026091;28;20267;-75
2022/09/06 07:58:50;;;;;;;4.63;4.23;;;20.60;99.90;;;;;;5025653;28;20522;-75
2022/09/06 08:01:26;;;;;;;5.00;4.27;;;20.60;99.90;;;;;;5027370;28;20983;-75
2022/09/06 08:03:51;;;;;;;5.23;4.43;;;20.70;99.90;;;;;;5027653;28;20832;-75
2022/09/06 08:06:17;;;;;;;6.67;4.83;;;20.80;99.90;;;;;;5027041;28;20478;-75
2022/09/06 08:08:43;;;;;;;12.60;4.13;;;21.00;99.90;;;;;;5025730;28;20212;-75
2022/09/06 08:11:09;;;;;;;6.00;4.10;;;21.20;99.90;;;;;;5025591;28;20231;-75
2022/09/06 08:13:36;;;;;;;5.83;4.27;;;21.40;99.90;;;;;;5025445;28;20520;-75
2022/09/06 08:16:05;;;;;;;9.43;4.80;;;21.60;99.90;;;;;;5026916;28;20426;-75
2022/09/06 08:18:30;;;;;;;10.93;4.63;;;21.80;99.90;;;;;;5027221;28;20509;-77
2022/09/06 08:21:04;;;;;;;11.40;4.10;;;21.90;99.90;;;;;;5026856;28;20471;-75
2022/09/06 08:23:29;;;;;;;6.40;4.10;;;22.00;99.90;;;;;;5027023;28;20185;-74
2022/09/06 08:25:59;;;;;;;8.57;3.90;;;22.10;99.90;;;;;;5027142;28;20423;-75
2022/09/06 08:28:25;;;;;;;11.00;4.37;;;22.30;99.90;;;;;;5027276;28;20186;-74
2022/09/06 08:30:51;;;;;;;8.40;4.60;;;22.40;99.90;;;;;;5025434;28;20820;-77
2022/09/06 08:33:24;;;;;;;9.93;4.53;;;22.60;99.90;;;;;;5027190;28;20976;-75
2022/09/06 08:35:59;;;;;;;6.93;4.33;;;22.70;99.90;;;;;;5027189;28;20413;-74
2022/09/06 08:38:25;;;;;;;4.27;3.87;;;22.80;99.90;;;;;;5026934;28;20550;-76
2022/09/06 08:40:54;;;;;;;7.97;4.07;;;22.80;99.90;;;;;;5027151;28;20903;-75
2022/09/06 08:43:21;;;;;;;8.03;3.93;;;23.00;99.90;;;;;;5025573;28;20426;-75
2022/09/06 08:45:55;;;;;;;5.90;3.57;;;23.30;99.90;;;;;;5027162;28;20522;-75
2022/09/06 08:48:23;;;;;;;7.40;4.23;;;23.60;99.90;;;;;;5026918;28;20467;-75
2022/09/06 08:51:23;;;;;;;28.57;4.93;;;23.80;99.90;;;;;;5026860;28;20524;-75
2022/09/06 08:53:50;;;;;;;8.43;4.60;;;24.00;99.90;;;;;;5026897;28;20427;-75
2022/09/06 08:56:22;;;;;;;6.10;4.30;;;24.00;99.90;;;;;;5026893;28;20421;-75
2022/09/06 08:59:10;;;;;;;13.83;3.93;;;24.10;99.90;;;;;;5025443;28;20546;-75
2022/09/06 09:02:12;;;;;;;8.17;3.70;;;24.10;99.90;;;;;;5026851;28;21018;-75
2022/09/06 09:04:44;;;;;;;6.53;4.00;;;24.30;99.90;;;;;;5026747;28;20501;-75
2022/09/06 09:07:35;;;;;;;8.17;3.40;;;24.30;99.90;;;;;;5025346;28;20438;-75
2022/09/06 09:10:05;;;;;;;5.27;3.43;;;24.70;99.90;;;;;;5025698;28;20465;-75
2022/09/06 09:12:32;;;;;;;8.73;3.70;;;24.70;99.90;;;;;;5025157;28;20527;-75
2022/09/06 09:15:07;;;;;;;7.17;3.93;;;24.90;99.90;;;;;;5025747;28;20426;-75
2022/09/06 09:17:35;;;;;;;13.43;3.57;;;25.20;99.90;;;;;;5029300;28;20425;-75
2022/09/06 09:20:01;;;;;;;11.30;4.50;;;25.60;99.90;;;;;;5029725;28;20461;-75
2022/09/06 09:22:26;;;;;;;9.63;4.13;;;26.20;99.90;;;;;;5031984;28;20457;-75
2022/09/06 09:24:56;;;;;;;7.70;3.80;;;26.40;99.90;;;;;;5032662;28;20185;-75
2022/09/06 09:27:25;;;;;;;11.87;4.47;;;26.70;99.90;;;;;;5032451;28;20213;-75
2022/09/06 09:29:53;;;;;;;5.10;3.00;;;26.80;99.90;;;;;;5032130;28;20973;-75
2022/09/06 09:32:30;;;;;;;10.57;3.40;;;26.90;99.90;;;;;;5042386;28;20467;-76
2022/09/06 09:35:23;;;;;;;10.43;4.20;;;27.20;99.90;;;;;;5057794;28;20782;-76
2022/09/06 09:38:08;;;;;;;8.83;3.43;;;27.70;99.90;;;;;;5057876;28;20477;-77
2022/09/06 09:40:38;;;;;;;10.90;3.83;;;28.00;99.90;;;;;;5056446;28;20423;-74
2022/09/06 09:43:20;;;;;;;11.83;3.57;;;28.20;99.90;;;;;;5033408;28;20415;-77
2022/09/06 09:46:16;;;;;;;8.23;3.10;;;28.30;99.90;;;;;;5032304;28;20462;-74
2022/09/06 09:49:03;;;;;;;9.80;3.60;;;28.50;99.90;;;;;;5024709;28;20462;-74
2022/09/06 09:51:31;;;;;;;14.37;4.00;;;28.80;99.90;;;;;;5031134;28;20488;-77
2022/09/06 09:54:06;;;;;;;10.07;4.37;;;29.00;99.90;;;;;;5030914;28;20403;-77
2022/09/06 09:56:37;;;;;;;7.00;3.90;;;29.50;99.90;;;;;;5030964;28;20416;-76
2022/09/06 09:59:15;;;;;;;8.57;3.60;;;29.80;99.90;;;;;;5030469;28;20465;-75
2022/09/06 10:01:41;;;;;;;14.33;4.83;;;30.20;99.90;;;;;;5030504;28;21015;-76
2022/09/06 10:04:10;;;;;;;10.20;4.10;;;30.10;99.60;;;;;;5012496;28;20459;-74
2022/09/06 10:06:37;;;;;;;12.10;3.50;;;30.00;96.50;;;;;;5030286;28;20181;-76
2022/09/06 10:09:21;;;;;;;10.00;3.47;;;29.60;98.50;;;;;;5029155;28;20439;-75
2022/09/06 10:11:56;;;;;;;8.47;3.70;;;29.30;99.60;;;;;;5029073;28;20475;-76
2022/09/06 10:14:28;;;;;;;8.63;4.10;;;29.20;99.90;;;;;;5029121;28;20854;-75
2022/09/06 10:16:55;;;;;;;14.03;3.70;;;29.00;99.90;;;;;;5029082;28;20438;-76
2022/09/06 10:19:41;;;;;;;6.90;3.60;;;28.60;99.90;;;;;;5030336;28;20888;-75
2022/09/06 10:22:30;;;;;;;9.77;3.20;;;28.60;99.90;;;;;;5030320;28;21023;-74
2022/09/06 10:25:02;;;;;;;8.57;3.63;;;28.10;99.90;;;;;;5030114;28;20490;-75
2022/09/06 10:27:27;;;;;;;12.93;3.30;;;28.00;99.90;;;;;;5030338;28;20779;-76
2022/09/06 10:30:02;;;;;;;11.17;3.87;;;27.90;99.90;;;;;;5030235;28;20415;-75
2022/09/06 10:32:38;;;;;;;10.90;3.77;;;27.80;99.90;;;;;;5030031;28;20199;-75
2022/09/06 10:35:23;;;;;;;11.20;3.77;;;27.90;99.90;;;;;;5030334;28;20423;-76
2022/09/06 10:38:14;;;;;;;11.07;3.60;;;28.10;99.90;;;;;;5030280;28;20422;-75
2022/09/06 10:40:52;;;;;;;8.60;4.23;;;28.50;99.90;;;;;;5030316;28;20478;-75
2022/09/06 10:43:19;;;;;;;9.57;3.90;;;28.70;99.90;;;;;;5030474;28;20422;-75
2022/09/06 10:46:01;;;;;;;10.57;3.97;;;28.60;99.90;;;;;;5030766;28;20510;-75
2022/09/06 10:48:31;;;;;;;9.30;3.37;;;28.60;99.90;;;;;;5030870;28;20442;-74
2022/09/06 10:50:59;;;;;;;11.37;3.63;;;28.40;99.90;;;;;;5030622;28;20463;-75
2022/09/06 10:53:35;;;;;;;9.60;3.30;;;28.10;99.90;;;;;;5030536;28;20407;-77
2022/09/06 10:56:06;;;;;;;11.67;3.50;;;27.80;99.90;;;;;;5029142;28;20427;-75
2022/09/06 10:58:38;;;;;;;8.37;3.17;;;27.60;99.90;;;;;;5030441;28;20455;-74
2022/09/06 11:01:06;;;;;;;11.57;3.80;;;27.40;99.90;;;;;;5030443;28;20567;-75
2022/09/06 11:03:39;;;;;;;8.90;3.20;;;27.30;99.90;;;;;;5029179;28;20420;-74
2022/09/06 11:06:08;;;;;;;7.83;3.60;;;26.90;99.90;;;;;;5028665;28;20472;-75
2022/09/06 11:08:49;;;;;;;14.13;3.80;;;26.70;99.90;;;;;;5029887;28;20791;-75
2022/09/06 11:11:23;;;;;;;13.90;4.20;;;26.70;99.90;;;;;;5029663;28;20466;-75
2022/09/06 11:13:49;;;;;;;12.03;4.23;;;26.70;99.90;;;;;;5029383;28;20439;-75
2022/09/06 11:16:23;;;;;;;17.77;3.50;;;26.80;99.90;;;;;;5029500;28;20427;-74
2022/09/06 11:19:01;;;;;;;7.23;3.73;;;26.70;99.90;;;;;;5029230;28;20227;-77
2022/09/06 11:22:00;;;;;;;7.00;3.10;;;26.70;99.90;;;;;;5029225;28;20435;-74
2022/09/06 11:24:56;;;;;;;11.23;4.00;;;26.70;99.90;;;;;;5027753;28;20505;-74
2022/09/06 11:27:34;;;;;;;11.47;3.67;;;26.80;99.90;;;;;;5029942;28;20503;-74
2022/09/06 11:30:01;;;;;;;10.27;4.33;;;26.70;99.90;;;;;;5029201;28;20502;-76
2022/09/06 11:32:31;;;;;;;6.13;3.27;;;26.60;99.90;;;;;;5028493;28;20936;-76
2022/09/06 11:35:00;;;;;;;6.20;3.50;;;26.50;99.90;;;;;;5028310;28;20521;-75
2022/09/06 11:37:35;;;;;;;9.97;4.47;;;26.40;99.90;;;;;;5026989;28;20481;-75
2022/09/06 11:40:25;;;;;;;7.30;3.40;;;26.30;99.90;;;;;;5027679;28;21046;-75
2022/09/06 11:42:51;;;;;;;10.07;3.93;;;26.30;99.90;;;;;;5023020;28;20438;-74
2022/09/06 11:45:37;;;;;;;14.57;4.00;;;26.30;99.90;;;;;;5028098;28;20412;-75
2022/09/06 11:48:42;;;;;;;12.80;3.70;;;26.20;99.90;;;;;;5028187;28;20187;-75
2022/09/06 11:51:09;;;;;;;10.20;4.23;;;26.10;99.90;;;;;;5028039;28;20434;-75
2022/09/06 11:53:56;;;;;;;10.87;3.83;;;26.00;99.90;;;;;;5028118;28;20485;-76
2022/09/06 11:56:31;;;;;;;9.10;3.80;;;25.90;99.90;;;;;;5020646;28;20423;-76
2022/09/06 11:59:05;;;;;;;13.53;4.40;;;25.80;99.90;;;;;;5027855;28;20465;-76
2022/09/06 12:01:32;;;;;;;13.70;4.63;;;25.80;99.90;;;;;;5027822;28;20427;-76
2022/09/06 12:03:59;;;;;;;16.73;4.13;;;25.90;99.90;;;;;;5027765;28;20415;-76
2022/09/06 12:06:29;;;;;;;14.00;4.87;;;26.00;99.90;;;;;;5027606;28;20419;-76
2022/09/06 12:08:55;;;;;;;10.70;4.57;;;26.20;99.90;;;;;;5026064;28;20462;-76
2022/09/06 12:11:36;;;;;;;9.00;4.13;;;26.80;99.90;;;;;;5027747;28;20875;-75
2022/09/06 12:14:22;;;;;;;7.40;3.80;;;27.40;99.90;;;;;;5027843;28;20202;-76
2022/09/06 12:17:00;;;;;;;6.80;3.77;;;28.20;99.90;;;;;;5027859;28;20804;-76
2022/09/06 12:20:05;;;;;;;10.90;4.20;;;28.60;99.90;;;;;;5027884;28;20462;-76
2022/09/06 12:22:39;;;;;;;9.53;3.23;;;29.10;99.90;;;;;;5021509;28;20443;-76
2022/09/06 12:25:33;;;;;;;12.77;3.93;;;29.20;99.90;;;;;;5027930;28;20443;-77
2022/09/06 12:28:08;;;;;;;16.07;4.33;;;28.80;99.90;;;;;;5027914;28;20465;-76
2022/09/06 12:30:42;;;;;;;11.50;4.70;;;28.70;99.90;;;;;;5026517;28;20911;-77
2022/09/06 12:33:14;;;;;;;12.27;3.80;;;28.30;99.90;;;;;;5026257;28;21030;-74
2022/09/06 12:35:40;;;;;;;12.83;3.73;;;28.40;99.90;;;;;;5027650;28;20447;-75
2022/09/06 12:38:10;;;;;;;10.50;3.47;;;28.80;99.90;;;;;;5027640;28;20466;-75
2022/09/06 12:40:40;;;;;;;11.73;3.60;;;28.90;99.90;;;;;;5027702;28;20231;-75
2022/09/06 12:43:09;;;;;;;52.83;33.40;;;29.00;99.90;;;;;;5026250;28;20423;-75
2022/09/06 12:45:40;;;;;;;9.83;6.03;;;29.10;99.90;;;;;;5027499;28;20477;-75
2022/09/06 12:48:09;;;;;;;9.13;4.90;;;29.00;99.90;;;;;;5027678;28;20820;-74
2022/09/06 12:50:36;;;;;;;5.80;3.33;;;29.30;99.90;;;;;;5027802;28;20415;-75
2022/09/06 12:53:15;;;;;;;11.47;4.40;;;29.50;99.90;;;;;;5012880;28;20457;-75
2022/09/06 12:55:41;;;;;;;5.03;3.37;;;29.60;99.10;;;;;;5031566;28;20422;-75
2022/09/06 12:58:11;;;;;;;9.43;3.47;;;29.70;98.00;;;;;;5030331;28;20440;-75
2022/09/06 13:00:44;;;;;;;6.00;2.77;;;29.70;98.00;;;;;;5031775;28;20319;-76